createdAt,value
2018-06-30T00:02:08.751Z,27.30
2018-06-30T00:04:41.283Z,27.30
2018-06-30T00:07:09.698Z,27.40
2018-06-30T00:09:38.080Z,27.40
2018-06-30T00:12:06.435Z,27.50
2018-06-30T00:14:34.918Z,27.50
2018-06-30T00:17:03.283Z,27.50
2018-06-30T00:19:31.983Z,27.60
2018-06-30T00:22:00.503Z,27.70
2018-06-30T00:24:28.891Z,27.70
2018-06-30T00:27:02.645Z,27.70
2018-06-30T00:29:31.240Z,27.80
2018-06-30T00:31:59.690Z,27.80
2018-06-30T00:34:28.020Z,27.80
2018-06-30T00:36:56.503Z,27.90
2018-06-30T00:39:25.028Z,27.90
2018-06-30T00:41:53.480Z,28.00
2018-06-30T00:44:21.755Z,28.00
2018-06-30T00:46:50.077Z,28.10
2018-06-30T00:49:19.418Z,28.30
2018-06-30T00:51:47.937Z,28.40
2018-06-30T00:54:16.881Z,28.30
2018-06-30T00:56:45.396Z,28.40
2018-06-30T00:59:14.107Z,28.40
2018-06-30T01:01:42.665Z,28.40
2018-06-30T01:04:11.051Z,28.50
2018-06-30T01:06:39.494Z,28.50
2018-06-30T01:09:08.275Z,28.50
2018-06-30T01:11:37.287Z,28.50
2018-06-30T01:14:05.657Z,28.60
2018-06-30T01:16:34.060Z,28.60
2018-06-30T01:19:02.523Z,28.70
2018-06-30T01:21:30.948Z,28.70
2018-06-30T01:23:59.343Z,28.80
2018-06-30T01:26:27.964Z,28.80
2018-06-30T01:28:56.448Z,28.90
2018-06-30T01:31:24.759Z,28.90
2018-06-30T01:33:53.139Z,28.90
2018-06-30T01:36:21.537Z,29.00
2018-06-30T01:38:49.812Z,29.00
2018-06-30T01:41:18.314Z,29.00
2018-06-30T01:43:46.854Z,29.10
2018-06-30T01:46:15.346Z,29.10
2018-06-30T01:48:43.914Z,29.10
2018-06-30T01:51:12.267Z,29.10
2018-06-30T01:53:41.154Z,29.20
2018-06-30T01:58:37.920Z,29.30
2018-06-30T02:01:06.437Z,29.30
2018-06-30T02:03:35.081Z,29.40
2018-06-30T02:06:03.491Z,29.40
2018-06-30T02:08:31.858Z,29.50
2018-06-30T02:11:00.296Z,29.50
2018-06-30T02:13:29.322Z,29.60
2018-06-30T02:15:57.768Z,29.60
2018-06-30T02:18:26.237Z,29.60
2018-06-30T02:20:54.676Z,29.70
2018-06-30T02:23:23.017Z,29.70
2018-06-30T02:25:51.508Z,29.80
2018-06-30T02:28:19.898Z,29.80
2018-06-30T02:30:48.296Z,29.90
2018-06-30T02:33:16.808Z,29.90
2018-06-30T02:35:45.361Z,30.00
2018-06-30T02:38:13.910Z,30.00
2018-06-30T02:43:11.094Z,30.10
2018-06-30T02:45:39.416Z,30.10
2018-06-30T02:48:07.745Z,30.10
2018-06-30T02:50:36.276Z,30.10
2018-06-30T02:53:04.666Z,30.10
2018-06-30T02:55:33.122Z,30.20
2018-06-30T02:58:01.480Z,30.20
2018-06-30T03:00:29.943Z,30.30
2018-06-30T03:02:58.643Z,30.40
2018-06-30T03:05:26.993Z,30.40
2018-06-30T03:07:55.462Z,30.60
2018-06-30T03:10:23.969Z,30.60
2018-06-30T03:12:52.361Z,30.70
2018-06-30T03:17:48.700Z,30.80
2018-06-30T03:20:17.156Z,30.90
2018-06-30T03:22:45.622Z,31.00
2018-06-30T03:25:13.956Z,30.90
2018-06-30T03:27:42.306Z,31.00
2018-06-30T03:30:10.654Z,31.10
2018-06-30T03:32:39.320Z,31.60
2018-06-30T03:35:07.622Z,31.20
2018-06-30T03:37:36.187Z,31.20
2018-06-30T03:40:04.748Z,31.30
2018-06-30T03:42:33.167Z,31.40
2018-06-30T03:45:01.527Z,31.50
2018-06-30T03:47:29.893Z,31.60
2018-06-30T03:49:58.325Z,31.70
2018-06-30T03:52:26.759Z,31.60
2018-06-30T03:54:55.961Z,31.70
2018-06-30T03:57:24.419Z,31.80
2018-06-30T03:59:52.813Z,31.80
2018-06-30T04:02:21.196Z,31.90
2018-06-30T04:04:49.532Z,32.60
2018-06-30T04:07:18.666Z,32.00
2018-06-30T04:09:47.179Z,32.10
2018-06-30T04:12:15.572Z,32.10
2018-06-30T04:14:44.107Z,32.10
2018-06-30T04:17:12.506Z,32.20
2018-06-30T04:19:41.288Z,32.30
2018-06-30T04:22:09.841Z,32.40
2018-06-30T04:24:38.185Z,32.40
2018-06-30T04:27:06.535Z,32.50
2018-06-30T04:29:34.832Z,32.60
2018-06-30T04:32:03.295Z,32.70
2018-06-30T04:34:31.800Z,32.70
2018-06-30T04:37:00.230Z,32.80
2018-06-30T04:39:28.679Z,32.80
2018-06-30T04:41:57.098Z,33.00
2018-06-30T04:44:25.527Z,32.90
2018-06-30T04:46:54.044Z,33.00
2018-06-30T04:49:22.552Z,33.10
2018-06-30T04:51:50.858Z,33.20
2018-06-30T04:54:19.337Z,33.20
2018-06-30T04:56:47.823Z,33.30
2018-06-30T04:59:16.290Z,33.40
2018-06-30T05:01:44.667Z,33.50
2018-06-30T05:04:13.084Z,33.50
2018-06-30T05:06:41.435Z,33.50
2018-06-30T05:09:09.772Z,33.60
2018-06-30T05:11:38.232Z,33.70
2018-06-30T05:14:06.715Z,33.70
2018-06-30T05:16:35.059Z,33.80
2018-06-30T05:19:03.420Z,33.90
2018-06-30T05:21:31.788Z,33.90
2018-06-30T05:24:00.205Z,33.90
2018-06-30T05:26:28.625Z,34.00
2018-06-30T05:28:56.999Z,34.10
2018-06-30T05:31:25.423Z,34.10
2018-06-30T05:33:53.802Z,34.20
2018-06-30T05:36:22.185Z,34.30
2018-06-30T05:38:51.049Z,34.40
2018-06-30T05:41:19.397Z,34.30
2018-06-30T05:43:47.966Z,34.40
2018-06-30T05:46:16.332Z,34.40
2018-06-30T05:48:44.676Z,34.50
2018-06-30T05:51:13.069Z,34.60
2018-06-30T05:53:41.372Z,34.60
2018-06-30T05:56:09.731Z,34.70
2018-06-30T05:58:38.221Z,34.70
2018-06-30T06:01:07.143Z,34.70
2018-06-30T06:03:35.888Z,34.70
2018-06-30T06:06:04.555Z,34.70
2018-06-30T06:08:33.909Z,34.80
2018-06-30T06:11:02.842Z,34.80
2018-06-30T06:13:31.760Z,34.90
2018-06-30T06:16:00.323Z,34.90
2018-06-30T06:18:28.795Z,35.00
2018-06-30T06:20:57.500Z,35.00
2018-06-30T06:23:25.866Z,35.00
2018-06-30T06:25:54.573Z,35.10
2018-06-30T06:28:22.884Z,35.10
2018-06-30T06:30:51.237Z,35.10
2018-06-30T06:33:19.765Z,35.20
2018-06-30T06:35:48.910Z,35.20
2018-06-30T06:38:17.207Z,35.20
2018-06-30T06:40:45.570Z,35.30
2018-06-30T06:43:13.843Z,35.30
2018-06-30T06:45:42.124Z,35.20
2018-06-30T06:48:10.404Z,35.30
2018-06-30T06:50:38.861Z,35.40
2018-06-30T06:53:07.587Z,35.40
2018-06-30T06:55:35.885Z,35.40
2018-06-30T06:58:04.455Z,35.40
2018-06-30T07:00:33.141Z,35.40
2018-06-30T07:03:04.667Z,35.40
2018-06-30T07:05:33.283Z,35.50
2018-06-30T07:08:01.663Z,35.50
2018-06-30T07:10:30.088Z,35.50
2018-06-30T07:12:59.027Z,35.40
2018-06-30T07:15:27.392Z,35.50
2018-06-30T07:17:56.054Z,35.50
2018-06-30T07:20:24.380Z,35.40
2018-06-30T07:22:52.657Z,35.40
2018-06-30T07:25:25.388Z,35.50
2018-06-30T08:49:51.844Z,35.50
2018-06-30T08:52:20.366Z,36.40
2018-06-30T08:54:48.890Z,35.40
2018-06-30T08:57:17.272Z,34.60
2018-06-30T08:59:45.756Z,34.00
2018-06-30T09:02:14.097Z,33.40
2018-06-30T09:04:42.438Z,32.70
2018-06-30T09:07:10.753Z,32.00
2018-06-30T09:09:39.153Z,31.30
2018-06-30T09:12:07.607Z,30.60
2018-06-30T09:14:35.956Z,30.10
2018-06-30T09:17:04.395Z,29.90
2018-06-30T09:19:32.886Z,29.70
2018-06-30T09:22:01.378Z,29.40
2018-06-30T09:24:29.893Z,29.20
2018-06-30T09:26:58.382Z,28.80
2018-06-30T09:29:26.744Z,28.60
2018-06-30T09:31:55.143Z,28.40
2018-06-30T09:34:23.645Z,28.10
2018-06-30T09:36:52.089Z,27.50
2018-06-30T09:39:20.577Z,27.20
2018-06-30T09:41:48.982Z,27.00
2018-06-30T09:44:17.371Z,26.70
2018-06-30T09:46:45.726Z,26.30
2018-06-30T09:49:14.055Z,25.80
2018-06-30T09:51:42.390Z,25.60
2018-06-30T09:54:10.733Z,25.20
2018-06-30T09:56:39.537Z,24.90
2018-06-30T09:59:07.820Z,24.30
2018-06-30T10:01:36.470Z,24.30
2018-06-30T10:04:05.063Z,24.30
2018-06-30T10:06:34.001Z,24.10
2018-06-30T10:09:02.913Z,23.80
2018-06-30T10:11:31.517Z,23.50
2018-06-30T10:14:00.177Z,23.20
2018-06-30T10:16:28.755Z,23.10
2018-06-30T10:18:57.077Z,22.90
2018-06-30T10:21:25.613Z,22.70
2018-06-30T10:23:54.268Z,22.70
2018-06-30T10:26:22.614Z,22.30
2018-06-30T10:28:51.069Z,21.90
2018-06-30T10:31:19.747Z,21.50
2018-06-30T10:33:48.037Z,21.20
2018-06-30T10:36:16.394Z,20.80
2018-06-30T10:38:44.864Z,20.10
2018-06-30T10:41:13.145Z,19.30
2018-06-30T10:43:41.572Z,19.00
2018-06-30T10:46:10.060Z,19.20
2018-06-30T10:48:38.411Z,19.10
2018-06-30T10:51:06.896Z,18.80
2018-06-30T10:53:35.233Z,19.10
2018-06-30T10:56:03.776Z,19.00
2018-06-30T10:58:32.324Z,19.20
2018-06-30T11:01:00.923Z,19.40
2018-06-30T11:03:29.479Z,19.10
2018-06-30T11:05:58.262Z,19.30
2018-06-30T11:08:26.701Z,19.80
2018-06-30T11:10:55.295Z,20.10
2018-06-30T11:13:23.740Z,20.30
2018-06-30T11:18:20.526Z,19.20
2018-06-30T11:20:49.010Z,18.80
2018-06-30T11:23:17.303Z,18.80
2018-06-30T11:25:45.622Z,19.20
2018-06-30T11:30:42.346Z,19.70
2018-06-30T11:33:10.718Z,19.60
2018-06-30T11:35:39.063Z,19.70
2018-06-30T11:38:07.476Z,19.50
2018-06-30T11:40:35.920Z,19.20
2018-06-30T11:43:04.297Z,18.90
2018-06-30T11:45:32.745Z,18.70
2018-06-30T11:48:01.612Z,18.90
2018-06-30T11:50:30.113Z,18.10
2018-06-30T11:52:58.643Z,17.60
2018-06-30T11:55:27.128Z,16.90
2018-06-30T11:57:55.632Z,16.30
2018-06-30T12:00:24.060Z,16.60
2018-06-30T12:02:52.541Z,16.70
2018-06-30T12:05:21.001Z,17.00
2018-06-30T12:07:49.456Z,17.10
2018-06-30T12:10:17.949Z,16.70
2018-06-30T12:12:46.232Z,16.70
2018-06-30T12:15:14.521Z,16.80
2018-06-30T12:17:43.125Z,16.90
2018-06-30T12:20:11.533Z,17.10
2018-06-30T12:22:40.079Z,17.10
2018-06-30T12:25:08.601Z,17.00
2018-06-30T12:27:36.935Z,16.80
2018-06-30T12:30:06.090Z,16.20
2018-06-30T12:32:34.808Z,15.70
2018-06-30T12:35:03.337Z,15.90
2018-06-30T12:37:31.851Z,15.20
2018-06-30T12:40:00.391Z,15.30
2018-06-30T12:42:28.868Z,15.80
2018-06-30T12:44:57.512Z,16.30
2018-06-30T12:47:26.024Z,16.60
2018-06-30T12:49:54.687Z,16.30
2018-06-30T12:52:23.031Z,16.00
2018-06-30T12:54:51.620Z,15.90
2018-06-30T12:57:20.035Z,16.10
2018-06-30T12:59:48.547Z,16.60
2018-06-30T13:02:16.932Z,17.00
2018-06-30T13:04:45.293Z,16.90
2018-06-30T13:07:13.897Z,16.60
2018-06-30T13:09:42.730Z,16.20
2018-06-30T13:12:11.203Z,15.90
2018-06-30T13:14:39.728Z,15.90
2018-06-30T13:17:08.117Z,16.10
2018-06-30T13:19:36.424Z,16.50
2018-06-30T13:22:04.821Z,16.50
2018-06-30T13:24:33.279Z,16.90
2018-06-30T13:27:02.130Z,16.20
2018-06-30T13:29:30.584Z,16.30
2018-06-30T13:31:59.442Z,16.40
2018-06-30T13:34:27.839Z,16.90
2018-06-30T13:36:56.252Z,17.40
2018-06-30T13:39:24.651Z,17.70
2018-06-30T13:41:53.877Z,17.90
2018-06-30T13:44:22.390Z,17.90
2018-06-30T13:46:50.824Z,17.80
2018-06-30T13:49:20.077Z,17.60
2018-06-30T13:51:48.483Z,17.30
2018-06-30T13:54:16.843Z,16.80
2018-06-30T13:56:45.516Z,16.20
2018-06-30T13:59:14.061Z,15.80
2018-06-30T14:01:42.577Z,15.30
2018-06-30T14:04:10.920Z,15.40
2018-06-30T14:06:39.325Z,15.60
2018-06-30T14:09:09.387Z,15.90
2018-06-30T14:11:37.858Z,16.20
2018-06-30T14:14:06.280Z,16.30
2018-06-30T14:16:34.733Z,16.20
2018-06-30T14:21:31.571Z,16.00
2018-06-30T14:24:00.947Z,16.00
2018-06-30T14:26:29.723Z,15.40
2018-06-30T14:28:59.162Z,15.00
2018-06-30T14:31:27.862Z,14.70
2018-06-30T14:33:56.520Z,14.50
2018-06-30T14:36:24.926Z,14.70
2018-06-30T14:41:21.829Z,15.80
2018-06-30T14:43:50.237Z,15.80
2018-06-30T14:46:18.563Z,15.90
2018-06-30T14:48:47.011Z,15.80
2018-06-30T14:51:15.407Z,15.50
2018-06-30T14:53:43.860Z,15.30
2018-06-30T14:56:12.289Z,15.20
2018-06-30T14:58:40.741Z,15.00
2018-06-30T15:01:09.281Z,15.00
2018-06-30T15:03:37.736Z,15.70
2018-06-30T15:06:06.238Z,15.40
2018-06-30T15:08:34.638Z,15.40
2018-06-30T15:11:03.442Z,15.50
2018-06-30T15:13:31.894Z,15.40
2018-06-30T15:16:00.240Z,15.60
2018-06-30T15:18:28.689Z,15.20
2018-06-30T15:20:57.123Z,14.80
2018-06-30T15:23:25.550Z,14.40
2018-06-30T15:25:53.947Z,14.40
2018-06-30T15:28:22.403Z,14.40
2018-06-30T15:33:18.974Z,14.70
2018-06-30T15:35:47.426Z,14.70
2018-06-30T15:38:15.705Z,14.70
2018-06-30T15:40:43.978Z,14.70
2018-06-30T15:43:12.504Z,15.10
2018-06-30T15:45:40.849Z,14.40
2018-06-30T15:48:09.213Z,14.40
2018-06-30T15:50:37.535Z,14.40
2018-06-30T15:53:05.900Z,14.40
2018-06-30T15:55:36.911Z,14.40
2018-06-30T15:58:05.638Z,14.10
2018-06-30T16:00:34.167Z,14.10
2018-06-30T16:03:02.948Z,14.00
2018-06-30T16:05:31.562Z,13.90
2018-06-30T16:07:59.987Z,13.90
2018-06-30T16:10:28.364Z,13.80
2018-06-30T16:12:56.774Z,13.90
2018-06-30T16:15:25.239Z,13.90
2018-06-30T16:17:53.630Z,14.00
2018-06-30T16:20:22.018Z,14.30
2018-06-30T16:22:50.457Z,14.50
2018-06-30T16:25:18.807Z,15.10
2018-06-30T16:27:47.281Z,14.90
2018-06-30T16:30:15.958Z,15.60
2018-06-30T16:32:44.495Z,15.20
2018-06-30T16:35:12.865Z,15.40
2018-06-30T16:37:41.290Z,15.60
2018-06-30T16:40:09.639Z,15.80
2018-06-30T16:42:38.001Z,16.00
2018-06-30T16:45:06.719Z,16.10
2018-06-30T16:47:36.215Z,16.20
2018-06-30T16:50:05.393Z,16.30
2018-06-30T16:52:34.060Z,16.40
2018-06-30T16:55:02.683Z,16.50
2018-06-30T16:57:31.148Z,16.50
2018-06-30T16:59:59.636Z,16.60
2018-06-30T17:02:27.932Z,16.70
2018-06-30T17:04:56.401Z,16.90
2018-06-30T17:07:24.992Z,16.80
2018-06-30T17:09:53.457Z,16.90
2018-06-30T17:14:49.933Z,17.60
2018-06-30T17:17:18.325Z,17.20
2018-06-30T17:22:15.073Z,17.30
2018-06-30T17:24:43.774Z,17.30
2018-06-30T17:27:12.149Z,17.30
2018-06-30T17:29:40.872Z,17.40
2018-06-30T17:32:09.496Z,17.30
2018-06-30T17:34:39.801Z,17.30
2018-06-30T17:37:08.630Z,17.30
2018-06-30T17:39:37.488Z,17.40
2018-06-30T17:42:06.562Z,17.40
2018-06-30T17:44:35.281Z,17.60
2018-06-30T17:47:03.880Z,17.40
2018-06-30T17:49:32.467Z,17.40
2018-06-30T17:52:01.481Z,17.40
2018-06-30T17:54:30.173Z,17.50
2018-06-30T17:56:58.982Z,17.50
2018-06-30T17:59:28.051Z,17.60
2018-06-30T18:01:57.164Z,17.60
2018-06-30T18:04:25.740Z,17.70
2018-06-30T18:06:54.610Z,17.60
2018-06-30T18:09:23.400Z,17.60
2018-06-30T18:11:52.040Z,17.70
2018-06-30T18:14:20.579Z,17.90
2018-06-30T18:16:48.976Z,17.70
2018-06-30T18:19:17.287Z,17.70
2018-06-30T18:21:45.672Z,17.70
2018-06-30T18:24:14.180Z,17.80
2018-06-30T18:26:44.039Z,17.60
2018-06-30T18:29:12.668Z,17.60
2018-06-30T18:31:41.255Z,17.60
2018-06-30T18:34:10.375Z,17.60
2018-06-30T18:36:38.961Z,18.00
2018-06-30T18:39:10.552Z,17.50
2018-06-30T18:41:38.954Z,17.70
2018-06-30T18:44:08.004Z,17.70
2018-06-30T18:46:36.516Z,17.60
2018-06-30T18:49:05.338Z,17.50
2018-06-30T18:51:34.450Z,17.60
2018-06-30T18:54:03.808Z,17.50
2018-06-30T18:56:32.580Z,17.50
2018-06-30T18:59:01.090Z,17.50
2018-06-30T19:01:29.471Z,17.50
2018-06-30T19:03:57.959Z,17.50
2018-06-30T19:06:26.395Z,17.50
2018-06-30T19:08:54.833Z,17.50
2018-06-30T19:11:23.373Z,17.40
2018-06-30T19:13:54.368Z,17.60
2018-06-30T19:18:51.412Z,17.50
2018-06-30T19:21:20.201Z,17.60
2018-06-30T19:23:48.879Z,17.60
2018-06-30T19:26:17.339Z,17.60
2018-06-30T19:28:45.745Z,17.60
2018-06-30T19:31:15.200Z,17.60
2018-06-30T19:33:44.185Z,17.70
2018-06-30T19:36:13.028Z,17.70
2018-06-30T19:38:41.605Z,17.80
2018-06-30T19:41:10.697Z,17.90
2018-06-30T19:43:39.635Z,17.80
2018-06-30T19:46:08.219Z,17.90
2018-06-30T19:48:38.203Z,17.90
2018-06-30T19:51:07.049Z,17.90
2018-06-30T19:53:36.456Z,18.00
2018-06-30T19:56:06.024Z,18.00
2018-06-30T19:58:34.769Z,18.10
2018-06-30T20:01:03.695Z,18.10
2018-06-30T20:03:32.577Z,18.20
2018-06-30T20:06:02.702Z,18.20
2018-06-30T20:08:31.915Z,18.30
2018-06-30T20:11:00.538Z,18.30
2018-06-30T20:13:29.010Z,18.40
2018-06-30T20:15:57.400Z,18.50
2018-06-30T20:18:26.945Z,18.50
2018-06-30T20:20:55.898Z,18.40
2018-06-30T20:23:26.887Z,18.50
2018-06-30T20:25:55.721Z,18.60
2018-06-30T20:28:24.384Z,18.60
2018-06-30T20:30:53.051Z,18.60
2018-06-30T20:33:21.732Z,18.60
2018-06-30T20:35:51.318Z,18.70
2018-06-30T20:38:19.724Z,18.60
2018-06-30T20:40:50.088Z,18.70
2018-06-30T20:43:18.551Z,18.70
2018-06-30T20:45:47.611Z,18.70
2018-06-30T20:48:16.288Z,18.70
2018-06-30T20:50:45.227Z,18.70
2018-06-30T20:53:13.596Z,18.80
2018-06-30T20:55:42.037Z,18.90
2018-06-30T20:58:12.422Z,18.90
2018-06-30T21:00:40.773Z,18.90
2018-06-30T21:03:12.449Z,18.90
2018-06-30T21:05:40.925Z,19.00
2018-06-30T21:08:09.668Z,18.90
2018-06-30T21:10:38.375Z,19.00
2018-06-30T21:13:06.747Z,19.00
2018-06-30T21:15:35.844Z,19.00
2018-06-30T21:18:04.373Z,19.00
2018-06-30T21:20:32.731Z,19.00
2018-06-30T21:23:01.323Z,19.10
2018-06-30T21:25:29.861Z,19.20
2018-06-30T21:27:58.327Z,19.20
2018-06-30T21:30:26.750Z,19.20
2018-06-30T21:32:55.140Z,19.30
2018-06-30T21:35:23.631Z,19.30
2018-06-30T21:37:52.251Z,19.30
2018-06-30T21:40:20.678Z,19.30
2018-06-30T21:42:49.036Z,19.40
2018-06-30T21:45:18.224Z,19.40
2018-06-30T21:47:46.931Z,19.40
2018-06-30T21:50:15.825Z,19.40
2018-06-30T21:52:44.220Z,19.50
2018-06-30T21:55:14.354Z,19.50
2018-06-30T21:57:42.819Z,19.50
2018-06-30T22:00:13.650Z,19.60
2018-06-30T22:02:42.377Z,19.50
2018-06-30T22:05:11.698Z,19.60
2018-06-30T22:07:40.371Z,19.30
2018-06-30T22:10:09.213Z,19.60
2018-06-30T22:12:37.693Z,19.70
2018-06-30T22:15:06.389Z,19.70
2018-06-30T22:17:35.696Z,19.80
2018-06-30T22:20:04.937Z,19.80
2018-06-30T22:22:33.861Z,19.80
2018-06-30T22:25:02.470Z,19.90
2018-06-30T22:27:31.751Z,19.90
2018-06-30T22:30:00.270Z,19.90
2018-06-30T22:32:28.820Z,19.90
2018-06-30T22:34:57.716Z,20.00
2018-06-30T22:37:26.259Z,20.10
2018-06-30T22:40:06.809Z,20.10
2018-06-30T22:42:35.468Z,20.10
2018-06-30T22:45:04.109Z,20.10
2018-06-30T22:47:32.949Z,20.10
2018-06-30T22:50:01.433Z,20.20
2018-06-30T22:52:29.787Z,20.20
2018-06-30T22:54:58.356Z,20.30
2018-06-30T22:57:29.111Z,20.30
2018-06-30T22:59:57.537Z,20.30
2018-06-30T23:02:26.869Z,20.30
2018-06-30T23:04:55.651Z,20.30
2018-06-30T23:07:24.270Z,20.40
2018-06-30T23:09:53.362Z,20.40
2018-06-30T23:12:22.076Z,20.40
2018-06-30T23:14:50.524Z,20.50
2018-06-30T23:17:18.927Z,20.50
2018-06-30T23:19:47.292Z,20.50
2018-06-30T23:22:23.852Z,20.60
2018-06-30T23:24:52.180Z,20.60
2018-06-30T23:27:21.454Z,20.60
2018-06-30T23:29:49.734Z,20.60
2018-06-30T23:32:18.112Z,20.70
2018-06-30T23:34:46.799Z,20.70
2018-06-30T23:37:15.442Z,20.70
2018-06-30T23:39:43.832Z,20.70
2018-06-30T23:42:12.147Z,20.80
2018-06-30T23:44:40.526Z,20.80
2018-06-30T23:47:08.756Z,20.90
2018-06-30T23:49:37.047Z,20.90
2018-06-30T23:52:05.608Z,20.90
2018-06-30T23:54:33.948Z,20.90
2018-06-30T23:57:02.297Z,21.00
2018-06-30T23:59:31.135Z,21.50
